Time,TemperatureF,DewpointF,PressureIn,WindDirection,WindDirectionDegrees,WindSpeedMPH,WindSpeedGustMPH,Humidity,HourlyPrecipIn,Conditions,Clouds,dailyrainin,SolarRadiationWatts/m^2,SoftwareType,DateUTC
2013-10-31 06:47:00,0.0,0.0,29.59,North,0,0.0,0.0,0,0.00,,---,0.00,0.00,VWS V14.01,2013-10-31 11:47:00,
2013-10-31 06:49:00,0.0,0.0,29.59,North,0,0.0,0.0,0,0.00,,---,0.00,0.00,VWS V14.01,2013-10-31 11:49:00,
2013-10-31 06:51:00,0.0,0.0,29.59,North,0,0.0,0.0,0,0.00,,---,0.00,0.00,VWS V14.01,2013-10-31 11:51:00,
2013-10-31 06:56:00,47.5,47.0,29.56,NNW,338,2.9,5.4,98,0.00,,---,0.00,0.00,VWS V14.01,2013-10-31 11:56:00,
2013-10-31 07:01:00,47.5,47.0,29.56,NNE,22,3.8,3.8,98,0.00,,---,0.00,0.00,VWS V14.01,2013-10-31 12:01:00,
2013-10-31 07:07:00,47.5,47.0,29.53,North,0,4.0,4.9,98,0.00,,---,0.00,0.00,VWS V14.01,2013-10-31 12:07:00,
2013-10-31 07:13:00,47.3,46.8,29.53,NNE,22,3.8,4.9,98,0.00,,---,0.00,0.00,VWS V14.01,2013-10-31 12:13:00,
2013-10-31 07:19:00,47.3,46.8,29.53,North,0,4.3,5.8,98,0.00,,---,0.00,0.00,VWS V14.01,2013-10-31 12:19:00,
2013-10-31 07:24:00,47.3,46.8,29.53,NNW,338,4.0,4.3,98,0.00,,---,0.00,0.00,VWS V14.01,2013-10-31 12:24:00,
2013-10-31 07:29:00,47.3,46.8,29.56,NNW,338,3.1,6.3,98,0.00,,---,0.00,0.00,VWS V14.01,2013-10-31 12:29:00,
2013-10-31 07:35:00,47.3,46.8,29.56,NNE,22,3.1,3.1,98,0.00,,---,0.00,0.00,VWS V14.01,2013-10-31 12:35:00,
2013-10-31 07:41:00,47.3,46.8,29.56,NNW,338,3.4,3.4,98,0.00,,---,0.00,0.00,VWS V14.01,2013-10-31 12:41:00,
2013-10-31 07:47:00,47.3,46.8,29.56,NNW,338,3.8,3.8,98,0.00,,---,0.00,0.00,VWS V14.01,2013-10-31 12:47:00,
2013-10-31 07:52:00,47.3,46.8,29.56,North,0,2.5,3.6,98,0.00,,---,0.00,0.00,VWS V14.01,2013-10-31 12:52:00,
2013-10-31 07:57:00,47.3,46.8,29.56,NNW,338,5.4,5.4,98,0.00,,---,0.00,0.00,VWS V14.01,2013-10-31 12:57:00,
2013-10-31 08:03:00,47.1,46.6,29.56,NNE,22,3.8,4.5,98,0.00,,---,0.00,0.00,VWS V14.01,2013-10-31 13:03:00,
2013-10-31 08:08:00,47.1,46.6,29.53,North,0,4.0,4.0,98,0.00,,---,0.00,0.00,VWS V14.01,2013-10-31 13:08:00,
2013-10-31 08:14:00,47.1,46.6,29.53,NNE,22,5.6,7.6,98,0.00,,---,0.00,0.00,VWS V14.01,2013-10-31 13:14:00,
2013-10-31 08:20:00,47.1,46.6,29.53,NNW,338,6.0,6.0,98,0.00,,---,0.00,0.00,VWS V14.01,2013-10-31 13:20:00,
2013-10-31 08:25:00,46.8,46.2,29.56,NNW,338,6.3,7.8,98,0.00,,---,0.00,0.00,VWS V14.01,2013-10-31 13:25:00,
2013-10-31 08:31:00,46.8,46.2,29.56,NNW,338,4.9,6.5,98,0.00,,---,0.00,0.00,VWS V14.01,2013-10-31 13:31:00,
2013-10-31 08:36:00,46.8,46.2,29.53,NNE,22,4.9,5.6,98,0.00,,---,0.00,0.00,VWS V14.01,2013-10-31 13:36:00,
2013-10-31 08:42:00,46.8,46.2,29.53,NNE,22,10.1,10.1,98,0.00,,---,0.00,0.00,VWS V14.01,2013-10-31 13:42:00,
2013-10-31 08:47:00,46.6,46.0,29.53,North,0,6.3,8.1,98,0.00,,---,0.00,0.00,VWS V14.01,2013-10-31 13:47:00,
2013-10-31 08:52:00,46.4,45.9,29.53,NW,315,6.0,6.0,98,0.00,,---,0.00,0.00,VWS V14.01,2013-10-31 13:52:00,
2013-10-31 08:58:00,46.4,45.9,29.56,NW,315,5.6,5.6,98,0.00,,---,0.00,0.00,VWS V14.01,2013-10-31 13:58:00,
2013-10-31 09:04:00,46.4,45.9,29.56,NNW,338,7.6,7.6,98,0.00,,---,0.00,0.00,VWS V14.01,2013-10-31 14:04:00,
2013-10-31 09:10:00,46.2,45.7,29.56,NW,315,3.8,3.8,98,0.00,,---,0.00,0.00,VWS V14.01,2013-10-31 14:10:00,
2013-10-31 09:16:00,46.0,45.5,29.56,NNW,338,6.0,7.6,98,0.00,,---,0.00,0.00,VWS V14.01,2013-10-31 14:16:00,
2013-10-31 09:21:00,45.9,45.3,29.56,NNW,338,7.4,7.4,98,0.00,,---,0.00,0.00,VWS V14.01,2013-10-31 14:21:00,
2013-10-31 09:26:00,45.9,45.3,29.56,NNW,338,8.1,8.1,98,0.00,,---,0.00,0.00,VWS V14.01,2013-10-31 14:26:00,
2013-10-31 09:32:00,45.7,45.2,29.56,NNW,338,7.4,7.4,98,0.00,,---,0.00,0.00,VWS V14.01,2013-10-31 14:32:00,
2013-10-31 09:38:00,45.7,45.2,29.56,North,0,7.8,7.8,98,0.00,,---,0.00,0.00,VWS V14.01,2013-10-31 14:38:00,
2013-10-31 09:44:00,45.5,45.0,29.53,NNW,338,7.6,7.6,98,0.00,,---,0.00,0.00,VWS V14.01,2013-10-31 14:44:00,
2013-10-31 09:50:00,45.5,45.0,29.53,North,0,9.0,9.0,98,0.00,,---,0.00,0.00,VWS V14.01,2013-10-31 14:50:00,
2013-10-31 09:56:00,45.5,45.0,29.53,North,0,7.8,7.8,98,0.00,,---,99.99,0.00,VWS V14.01,2013-10-31 14:56:00,
2013-10-31 10:02:00,45.5,45.0,29.53,NNE,22,5.6,5.6,98,0.00,,---,99.99,0.00,VWS V14.01,2013-10-31 15:02:00,
2013-10-31 10:08:00,45.5,45.0,29.50,NNE,22,6.5,9.6,98,0.00,,---,99.99,0.00,VWS V14.01,2013-10-31 15:08:00,
2013-10-31 10:14:00,45.7,45.2,29.50,NNW,338,8.5,8.5,98,0.00,,---,99.99,0.00,VWS V14.01,2013-10-31 15:14:00,
2013-10-31 10:19:00,45.9,45.3,29.50,NNW,338,4.9,4.9,98,0.00,,---,99.99,0.00,VWS V14.01,2013-10-31 15:19:00,
2013-10-31 10:24:00,45.9,45.3,29.53,NNE,22,4.3,8.1,98,0.00,,---,99.99,0.00,VWS V14.01,2013-10-31 15:24:00,
2013-10-31 10:30:00,46.2,45.7,29.53,NNW,338,6.0,7.6,98,0.00,,---,99.99,0.00,VWS V14.01,2013-10-31 15:30:00,
2013-10-31 10:36:00,46.2,45.7,29.53,NW,315,8.1,8.1,98,0.00,,---,99.99,0.00,VWS V14.01,2013-10-31 15:36:00,
2013-10-31 10:42:00,46.0,45.5,29.53,NNE,22,9.0,9.8,98,0.00,,---,99.99,0.00,VWS V14.01,2013-10-31 15:42:00,
2013-10-31 10:48:00,45.9,45.3,29.53,NNW,338,5.6,6.0,98,0.00,,---,99.99,0.00,VWS V14.01,2013-10-31 15:48:00,
2013-10-31 10:54:00,46.0,45.5,29.53,NNE,22,5.8,5.8,98,0.00,,---,99.99,0.00,VWS V14.01,2013-10-31 15:54:00,
2013-10-31 11:00:00,46.0,45.5,29.53,NNW,338,3.1,3.1,98,0.00,,---,99.99,0.00,VWS V14.01,2013-10-31 16:00:00,
2013-10-31 11:06:00,46.2,45.7,29.53,NNW,338,4.9,6.3,98,0.00,,---,99.99,0.00,VWS V14.01,2013-10-31 16:06:00,
2013-10-31 11:12:00,46.2,45.7,29.53,WNW,292,7.8,8.1,98,0.00,,---,99.99,0.00,VWS V14.01,2013-10-31 16:12:00,
2013-10-31 11:17:00,46.4,45.9,29.53,North,0,7.8,7.8,98,0.00,,---,99.99,0.00,VWS V14.01,2013-10-31 16:17:00,
2013-10-31 11:22:00,46.2,45.7,29.53,NW,315,7.8,7.8,98,0.00,,---,99.99,0.00,VWS V14.01,2013-10-31 16:22:00,
2013-10-31 11:28:00,46.2,45.7,29.53,WNW,292,8.1,8.7,98,0.00,,---,99.99,0.00,VWS V14.01,2013-10-31 16:28:00,
2013-10-31 11:33:00,46.2,45.7,29.53,NNW,338,7.8,7.8,98,0.00,,---,99.99,0.00,VWS V14.01,2013-10-31 16:33:00,
2013-10-31 11:39:00,46.4,45.9,29.53,NNW,338,6.0,6.0,98,0.00,,---,99.99,0.00,VWS V14.01,2013-10-31 16:39:00,
2013-10-31 11:44:00,46.4,45.9,29.53,NNW,338,10.1,10.1,98,0.00,,---,99.99,0.00,VWS V14.01,2013-10-31 16:44:00,
2013-10-31 11:49:00,46.4,45.9,29.53,NNW,338,8.5,8.5,98,0.00,,---,99.99,0.00,VWS V14.01,2013-10-31 16:49:00,
2013-10-31 11:54:00,46.4,45.9,29.53,North,0,7.8,7.8,98,0.00,,---,99.99,0.00,VWS V14.01,2013-10-31 16:54:00,
2013-10-31 11:59:00,46.2,45.7,29.53,NNW,338,4.3,7.2,98,0.00,,---,99.99,0.00,VWS V14.01,2013-10-31 16:59:00,
2013-10-31 12:04:00,46.2,45.7,29.53,NNE,22,2.9,2.9,98,0.00,,---,99.99,0.00,VWS V14.01,2013-10-31 17:04:00,
2013-10-31 12:11:00,46.4,45.9,29.53,NNE,22,4.9,4.9,98,0.00,,---,99.99,0.00,VWS V14.01,2013-10-31 17:11:00,
2013-10-31 12:17:00,46.2,45.7,29.47,ENE,68,3.6,8.5,98,0.00,,---,99.99,0.00,VWS V14.01,2013-10-31 17:17:00,
2013-10-31 12:23:00,46.2,45.7,29.47,NE,45,5.6,5.6,98,0.00,,---,99.99,0.00,VWS V14.01,2013-10-31 17:23:00,
2013-10-31 12:29:00,46.2,45.7,29.44,NNW,338,6.5,6.5,98,0.00,,---,99.99,0.00,VWS V14.01,2013-10-31 17:29:00,
2013-10-31 12:34:00,46.2,45.7,29.44,North,0,5.6,6.3,98,0.00,,---,99.99,0.00,VWS V14.01,2013-10-31 17:34:00,
2013-10-31 12:39:00,46.2,45.7,29.44,North,0,5.6,5.6,98,0.00,,---,99.99,0.00,VWS V14.01,2013-10-31 17:39:00,
2013-10-31 12:45:00,46.9,46.4,29.44,NW,315,4.9,4.9,98,0.00,,---,99.99,0.00,VWS V14.01,2013-10-31 17:45:00,
2013-10-31 12:50:00,46.9,46.4,29.53,NW,315,8.5,8.5,98,0.00,,---,99.99,0.00,VWS V14.01,2013-10-31 17:50:00,
2013-10-31 12:56:00,46.9,46.4,29.50,WNW,292,8.5,9.8,98,0.00,,---,99.99,0.00,VWS V14.01,2013-10-31 17:56:00,
2013-10-31 13:02:00,46.6,46.0,29.50,North,0,6.3,6.3,98,0.00,,---,99.99,0.00,VWS V14.01,2013-10-31 18:02:00,
2013-10-31 13:08:00,46.8,46.2,29.50,NNW,338,6.0,6.0,98,0.00,,---,99.99,0.00,VWS V14.01,2013-10-31 18:08:00,
2013-10-31 13:13:00,46.8,46.2,29.50,NNW,338,6.3,7.8,98,0.00,,---,99.99,0.00,VWS V14.01,2013-10-31 18:13:00,
2013-10-31 13:19:00,46.8,46.2,29.50,WNW,292,9.8,9.8,98,0.00,,---,99.99,0.00,VWS V14.01,2013-10-31 18:19:00,
2013-10-31 13:24:00,46.8,46.2,29.50,NW,315,6.3,6.3,98,0.00,,---,99.99,0.00,VWS V14.01,2013-10-31 18:24:00,
2013-10-31 13:30:00,46.8,46.2,29.47,WNW,292,7.4,10.5,98,0.00,,---,99.99,0.00,VWS V14.01,2013-10-31 18:30:00,
2013-10-31 13:36:00,47.3,46.8,29.47,NNW,338,5.8,5.8,98,0.00,,---,99.99,0.00,VWS V14.01,2013-10-31 18:36:00,
2013-10-31 13:41:00,47.3,46.8,29.47,NNW,338,4.0,4.7,98,0.00,,---,99.99,0.00,VWS V14.01,2013-10-31 18:41:00,
2013-10-31 13:46:00,47.5,47.0,29.47,WNW,292,7.8,7.8,98,0.00,,---,99.99,0.00,VWS V14.01,2013-10-31 18:46:00,
2013-10-31 13:53:00,47.5,47.0,29.50,NNW,338,6.0,8.5,98,0.00,,---,99.99,0.00,VWS V14.01,2013-10-31 18:53:00,
2013-10-31 13:59:00,47.3,46.8,29.50,NNW,338,5.8,5.8,98,0.00,,---,99.99,0.00,VWS V14.01,2013-10-31 18:59:00,
2013-10-31 14:05:00,47.7,47.1,29.50,WNW,292,3.8,3.8,98,0.00,,---,99.99,0.00,VWS V14.01,2013-10-31 19:05:00,
2013-10-31 14:11:00,47.7,47.1,29.50,WNW,292,6.0,7.6,98,0.00,,---,99.99,0.00,VWS V14.01,2013-10-31 19:11:00,
2013-10-31 14:17:00,0.0,0.0,29.50,North,0,0.0,0.0,0,0.00,,---,99.99,0.00,VWS V14.01,2013-10-31 19:17:00,
2013-10-31 14:23:00,47.3,46.8,29.50,WNW,292,5.8,5.8,98,0.00,,---,99.99,0.00,VWS V14.01,2013-10-31 19:23:00,
2013-10-31 14:29:00,47.3,46.8,29.50,West,270,3.1,5.6,98,0.00,,---,99.99,0.00,VWS V14.01,2013-10-31 19:29:00,
2013-10-31 14:34:00,47.3,46.8,29.50,NW,315,6.0,6.0,98,0.00,,---,99.99,0.00,VWS V14.01,2013-10-31 19:34:00,
2013-10-31 14:41:00,47.5,47.0,29.47,WNW,292,4.9,7.2,98,0.00,,---,99.99,0.00,VWS V14.01,2013-10-31 19:41:00,
2013-10-31 14:47:00,47.8,47.3,29.47,WNW,292,7.4,7.4,98,0.00,,---,99.99,0.00,VWS V14.01,2013-10-31 19:47:00,
2013-10-31 14:53:00,48.0,47.5,29.50,WNW,292,6.9,6.9,98,0.00,,---,99.99,0.00,VWS V14.01,2013-10-31 19:53:00,
2013-10-31 14:57:00,48.0,47.5,29.50,West,270,5.6,8.5,98,0.00,,---,99.99,0.00,VWS V14.01,2013-10-31 19:57:00,
2013-10-31 15:02:00,48.4,47.8,29.50,West,270,5.6,5.6,98,0.00,,---,99.99,0.00,VWS V14.01,2013-10-31 20:02:00,
2013-10-31 15:07:00,48.4,47.8,29.50,West,270,7.6,7.6,98,0.00,,---,99.99,0.00,VWS V14.01,2013-10-31 20:07:00,
2013-10-31 15:13:00,48.4,47.8,29.50,WNW,292,8.7,8.7,98,0.00,,---,99.99,0.00,VWS V14.01,2013-10-31 20:13:00,
2013-10-31 15:19:00,48.6,48.0,29.50,WNW,292,7.6,7.6,98,0.00,,---,99.99,0.00,VWS V14.01,2013-10-31 20:19:00,
2013-10-31 15:27:00,48.4,47.8,29.50,West,270,4.3,6.3,98,0.00,,---,99.99,0.00,VWS V14.01,2013-10-31 20:27:00,
2013-10-31 15:33:00,48.4,47.8,29.47,WNW,292,5.6,5.6,98,0.00,,---,99.99,0.00,VWS V14.01,2013-10-31 20:33:00,
2013-10-31 15:39:00,48.4,47.8,29.50,WNW,292,4.3,4.3,98,0.00,,---,99.99,0.00,VWS V14.01,2013-10-31 20:39:00,
2013-10-31 15:44:00,48.4,47.8,29.50,West,270,6.5,6.5,98,0.00,,---,99.99,0.00,VWS V14.01,2013-10-31 20:44:00,
2013-10-31 15:49:00,48.4,47.8,29.50,WSW,248,3.6,3.6,98,0.00,,---,99.99,0.00,VWS V14.01,2013-10-31 20:49:00,
2013-10-31 15:55:00,48.4,47.8,29.50,WSW,248,4.0,5.6,98,0.00,,---,99.99,0.00,VWS V14.01,2013-10-31 20:55:00,
2013-10-31 16:01:00,48.7,48.2,29.50,West,270,2.9,6.5,98,0.00,,---,99.99,0.00,VWS V14.01,2013-10-31 21:01:00,
2013-10-31 16:06:00,48.7,48.2,29.50,WSW,248,7.2,7.2,98,0.00,,---,99.99,0.00,VWS V14.01,2013-10-31 21:06:00,
2013-10-31 16:11:00,48.7,48.2,29.50,WSW,248,6.7,6.7,98,0.00,,---,99.99,0.00,VWS V14.01,2013-10-31 21:11:00,
2013-10-31 16:17:00,51.4,50.9,29.50,WSW,248,4.3,5.6,98,0.00,,---,99.99,0.00,VWS V14.01,2013-10-31 21:17:00,
2013-10-31 16:22:00,51.1,50.5,29.50,West,270,4.0,4.9,98,0.00,,---,99.99,0.00,VWS V14.01,2013-10-31 21:22:00,
2013-10-31 16:27:00,51.6,51.1,29.50,West,270,5.4,5.4,98,0.00,,---,99.99,0.00,VWS V14.01,2013-10-31 21:27:00,
2013-10-31 16:33:00,51.8,51.3,29.50,West,270,6.0,6.5,98,0.00,,---,99.99,0.00,VWS V14.01,2013-10-31 21:33:00,
2013-10-31 16:38:00,51.8,51.3,29.50,WSW,248,4.0,4.0,98,0.00,,---,99.99,0.00,VWS V14.01,2013-10-31 21:38:00,
2013-10-31 16:44:00,51.8,51.3,29.53,WSW,248,5.6,7.2,98,0.00,,---,99.99,0.00,VWS V14.01,2013-10-31 21:44:00,
2013-10-31 16:49:00,51.8,51.3,29.53,SW,225,3.6,3.8,98,0.00,,---,99.99,0.00,VWS V14.01,2013-10-31 21:49:00,
2013-10-31 16:55:00,52.3,51.8,29.53,WNW,292,4.3,4.3,98,0.00,,---,99.99,0.00,VWS V14.01,2013-10-31 21:55:00,
2013-10-31 17:01:00,52.3,51.8,29.47,West,270,4.0,4.0,98,0.00,,---,99.99,0.00,VWS V14.01,2013-10-31 22:01:00,
2013-10-31 17:07:00,52.3,51.5,29.50,WNW,292,5.6,5.6,97,0.00,,---,99.99,0.00,VWS V14.01,2013-10-31 22:07:00,
2013-10-31 17:13:00,52.2,51.1,29.50,WSW,248,6.0,6.0,96,0.00,,---,99.99,0.00,VWS V14.01,2013-10-31 22:13:00,
2013-10-31 17:19:00,52.0,50.9,29.50,West,270,4.3,4.3,96,0.00,,---,99.99,0.00,VWS V14.01,2013-10-31 22:19:00,
2013-10-31 17:25:00,52.0,50.9,29.50,WSW,248,6.3,6.3,96,0.00,,---,99.99,0.00,VWS V14.01,2013-10-31 22:25:00,
2013-10-31 17:30:00,51.3,50.4,29.50,West,270,5.8,5.8,97,0.00,,---,99.99,0.00,VWS V14.01,2013-10-31 22:30:00,
2013-10-31 17:35:00,51.3,50.4,29.50,WSW,248,5.6,6.3,97,0.00,,---,99.99,0.00,VWS V14.01,2013-10-31 22:35:00,
2013-10-31 17:41:00,51.3,50.7,29.50,West,270,4.0,4.0,98,0.00,,---,99.99,0.00,VWS V14.01,2013-10-31 22:41:00,
2013-10-31 17:47:00,50.9,50.4,29.50,WSW,248,3.1,3.1,98,0.00,,---,99.99,0.00,VWS V14.01,2013-10-31 22:47:00,
2013-10-31 17:52:00,50.2,49.6,29.50,WSW,248,3.1,3.8,98,0.00,,---,99.99,0.00,VWS V14.01,2013-10-31 22:52:00,
2013-10-31 17:57:00,50.2,49.6,29.47,SW,225,2.9,2.9,98,0.00,,---,99.99,0.00,VWS V14.01,2013-10-31 22:57:00,
2013-10-31 18:03:00,49.5,48.9,29.47,WSW,248,2.9,2.9,98,0.00,,---,99.99,0.00,VWS V14.01,2013-10-31 23:03:00,
2013-10-31 18:10:00,49.5,48.9,29.50,SW,225,2.9,2.9,98,0.00,,---,99.99,0.00,VWS V14.01,2013-10-31 23:10:00,
2013-10-31 18:16:00,48.6,48.0,29.50,SW,225,1.6,2.9,98,0.00,,---,99.99,0.00,VWS V14.01,2013-10-31 23:16:00,
2013-10-31 18:22:00,48.4,47.8,29.50,SW,225,2.9,2.9,98,0.00,,---,99.99,0.00,VWS V14.01,2013-10-31 23:22:00,
2013-10-31 18:27:00,48.4,47.8,29.50,SW,225,1.6,1.6,98,0.00,,---,99.99,0.00,VWS V14.01,2013-10-31 23:27:00,
2013-10-31 18:33:00,47.8,47.3,29.50,SW,225,2.5,2.5,98,0.00,,---,99.99,0.00,VWS V14.01,2013-10-31 23:33:00,
2013-10-31 18:38:00,47.8,47.3,29.50,SW,225,2.0,2.2,98,0.00,,---,99.99,0.00,VWS V14.01,2013-10-31 23:38:00,
2013-10-31 18:43:00,47.5,47.0,29.50,SSW,202,1.6,1.6,98,0.00,,---,99.99,0.00,VWS V14.01,2013-10-31 23:43:00,
2013-10-31 18:49:00,47.1,46.6,29.50,SSW,202,1.6,1.6,98,0.00,,---,99.99,0.00,VWS V14.01,2013-10-31 23:49:00,
2013-10-31 18:56:00,46.9,46.4,29.50,SSW,202,1.3,1.6,98,0.00,,---,99.99,0.00,VWS V14.01,2013-10-31 23:56:00,
2013-10-31 19:01:00,46.8,46.2,29.50,SSW,202,1.6,1.6,98,0.00,,---,99.99,0.00,VWS V14.01,2013-11-01 00:01:00,
2013-10-31 19:06:00,46.8,46.2,29.50,SSW,202,1.6,1.6,98,0.00,,---,99.99,0.00,VWS V14.01,2013-11-01 00:06:00,
2013-10-31 19:12:00,46.0,45.5,29.50,SSW,202,2.0,2.2,98,0.00,,---,99.99,0.00,VWS V14.01,2013-11-01 00:12:00,
2013-10-31 19:17:00,45.9,45.3,29.50,SW,225,2.5,2.5,98,0.00,,---,99.99,0.00,VWS V14.01,2013-11-01 00:17:00,
2013-10-31 19:22:00,45.9,45.3,29.50,WSW,248,2.5,2.5,98,0.00,,---,99.99,0.00,VWS V14.01,2013-11-01 00:22:00,
2013-10-31 19:28:00,45.9,45.3,29.50,West,270,2.7,2.9,98,0.00,,---,99.99,0.00,VWS V14.01,2013-11-01 00:28:00,
2013-10-31 19:33:00,45.3,44.8,29.50,WSW,248,3.1,4.3,98,0.00,,---,99.99,0.00,VWS V14.01,2013-11-01 00:33:00,
2013-10-31 19:39:00,45.3,44.8,29.50,SW,225,7.4,7.4,98,0.00,,---,99.99,0.00,VWS V14.01,2013-11-01 00:39:00,
2013-10-31 19:45:00,46.0,45.5,29.50,WSW,248,3.6,3.6,98,0.00,,---,99.99,0.00,VWS V14.01,2013-11-01 00:45:00,
2013-10-31 19:50:00,46.4,45.9,29.50,WSW,248,2.7,2.7,98,0.00,,---,99.99,0.00,VWS V14.01,2013-11-01 00:50:00,
2013-10-31 19:56:00,46.4,45.9,29.50,SW,225,4.0,4.0,98,0.00,,---,99.99,0.00,VWS V14.01,2013-11-01 00:56:00,
2013-10-31 20:02:00,46.4,45.9,29.50,West,270,4.3,4.3,98,0.00,,---,99.99,0.00,VWS V14.01,2013-11-01 01:02:00,
2013-10-31 20:08:00,46.8,46.2,29.50,SSW,202,3.8,3.8,98,0.00,,---,99.99,0.00,VWS V14.01,2013-11-01 01:08:00,
2013-10-31 20:14:00,46.8,46.2,29.50,SW,225,4.5,4.5,98,0.00,,---,99.99,0.00,VWS V14.01,2013-11-01 01:14:00,